Thursday, April 19, 2018, 4:25 PM CDT
Back to Local

KGUY, Guymon Municipal Airport

Location: Guymon, OK, United States Lat: 36.683
Local Time: 4:25 PM CDT (21:25 GMT) Lon: -101.5
Time Zone: US/Central Elev: 3123 ft

Show me the last for .
Show Decoded

2018-04-19 15:53 METAR KGUY 192053Z AUTO 16014G22KT 10SM CLR 19/M06 A3025 RMK AO2 SLP227
                 T01941056 56039 =
2018-04-19 14:53 METAR KGUY 191953Z AUTO 16013G19KT 10SM CLR 18/M03 A3029 RMK AO2 SLP245
                 T01831033 =
2018-04-19 13:53 METAR KGUY 191853Z AUTO 16011KT 10SM CLR 17/M04 A3033 RMK AO2 SLP259 T01671039 =
2018-04-19 12:53 METAR KGUY 191753Z AUTO 15014G18KT 10SM CLR 16/M03 A3038 RMK AO2 SLP274
                 T01561028 10167 20006 58011 =
2018-04-19 11:53 METAR KGUY 191653Z AUTO 17012G19KT 10SM CLR 15/M02 A3040 RMK AO2 SLP279
                 T01501022 =
2018-04-19 10:53 METAR KGUY 191553Z AUTO 13009KT 10SM CLR 13/M02 A3041 RMK AO2 SLP284 T01281017 =
2018-04-19 09:53 METAR KGUY 191453Z AUTO 16009KT 10SM CLR 09/M02 A3041 RMK AO2 SLP287 T00941022
                 51013 =
2018-04-19 08:53 METAR KGUY 191353Z AUTO 17006KT 10SM CLR 07/M03 A3040 RMK AO2 SLP285 T00671033 =
2018-04-19 07:53 METAR KGUY 191253Z AUTO 00000KT 10SM CLR 02/M06 A3038 RMK AO2 SLP280 T00221056 =
2018-04-19 06:53 METAR KGUY 191153Z AUTO 10003KT 10SM CLR 02/M05 A3037 RMK AO2 SLP272 T00221050
                 10056 20006 53016 =
2018-04-19 05:53 METAR KGUY 191053Z AUTO 00000KT 10SM CLR 03/M06 A3035 RMK AO2 SLP264 T00281061 =
2018-04-19 04:53 METAR KGUY 190953Z AUTO 04003KT 10SM CLR 01/M08 A3032 RMK AO2 SLP255 T00111078 =
2018-04-19 03:53 METAR KGUY 190853Z AUTO 00000KT 10SM CLR 04/M08 A3032 RMK AO2 SLP251 T00391078
                 51005 =
2018-04-19 02:53 METAR KGUY 190753Z AUTO 02004KT 10SM CLR 02/M09 A3032 RMK AO2 SLP253 T00221089 =
2018-04-19 01:53 METAR KGUY 190653Z AUTO 00000KT 10SM CLR 03/M08 A3031 RMK AO2 SLP251 T00281078 =
2018-04-19 00:53 METAR KGUY 190553Z AUTO 22004KT 10SM CLR 06/M08 A3030 RMK AO2 SLP245 T00561083
                 10178 20022 401940022 53016 =
2018-04-18 23:53 METAR KGUY 190453Z AUTO 00000KT 10SM CLR 08/M09 A3027 RMK AO2 SLP235 T00831089 =
2018-04-18 22:53 METAR KGUY 190353Z AUTO 02004KT 10SM CLR 08/M09 A3027 RMK AO2 SLP234 T00781094 =
2018-04-18 21:53 METAR KGUY 190253Z AUTO 03004KT 10SM CLR 10/M10 A3025 RMK AO2 SLP228 T01001100
                 53014 =
2018-04-18 20:53 METAR KGUY 190153Z AUTO 02005KT 10SM CLR 11/M10 A3023 RMK AO2 SLP224 T01111100 =
2018-04-18 19:53 METAR KGUY 190053Z AUTO 02008KT 10SM CLR 16/M11 A3021 RMK AO2 SLP217 T01561111 =
2018-04-18 18:53 METAR KGUY 182353Z AUTO 02010G17KT 10SM CLR 18/M13 A3020 RMK AO2 SLP212
                 T01781128 10194 20161 55000 =
2018-04-18 17:53 METAR KGUY 182253Z AUTO 36012G24KT 10SM CLR 18/M13 A3020 RMK AO2 SLP209
                 T01831133 =
2018-04-18 16:53 METAR KGUY 182153Z AUTO 36016G24KT 10SM CLR 19/M13 A3020 RMK AO2 PK WND
                 34028/2056 SLP207 T01891128 =

Support USWX by starting your Amazon purchase here.